Time;durP1;ratioP1;P1;durP2;ratioP2;P2;SDS_P1;SDS_P2;PMS_P1;PMS_P2;Temp;Humidity;BMP_temperature;BMP_pressure;BME280_temperature;BME280_humidity;BME280_pressure;Samples;Min_cycle;Max_cycle;Signal;HPM_P1;HPM_P2
2022/11/03 00:01:36;;;;;;;15.73;5.67;;;;;;;11.79;72.09;101003.66;5054487;28;20207;-63
2022/11/03 00:04:05;;;;;;;18.77;5.53;;;;;;;11.66;72.98;100999.47;5053454;28;20222;-65
2022/11/03 00:06:33;;;;;;;11.13;5.00;;;;;;;11.59;73.39;100990.41;5049983;28;20842;-65
2022/11/03 00:09:04;;;;;;;14.03;4.90;;;;;;;11.57;73.77;100983.53;5050166;28;20216;-64
2022/11/03 00:11:33;;;;;;;18.57;5.33;;;;;;;11.53;73.86;100987.44;5051915;28;20218;-63
2022/11/03 00:14:01;;;;;;;16.97;5.43;;;;;;;11.50;74.26;100983.28;5052766;28;20857;-62
2022/11/03 00:16:29;;;;;;;12.90;4.93;;;;;;;11.57;74.06;100979.06;5053729;28;20614;-64
2022/11/03 00:18:56;;;;;;;14.53;5.40;;;;;;;11.49;74.39;100981.59;5047704;28;20207;-64
2022/11/03 00:21:24;;;;;;;12.60;4.70;;;;;;;11.39;75.15;100983.41;5045814;28;20273;-63
2022/11/03 00:23:53;;;;;;;16.77;5.33;;;;;;;11.45;75.29;100984.66;5052063;28;20210;-64
2022/11/03 00:26:24;;;;;;;12.20;4.67;;;;;;;11.38;75.34;100971.13;5051768;28;20252;-64
2022/11/03 00:28:53;;;;;;;11.73;4.70;;;;;;;11.32;75.76;100964.56;5049596;28;20307;-65
2022/11/03 00:31:23;;;;;;;13.37;4.50;;;;;;;11.25;76.19;100958.16;5053766;28;20274;-63
2022/11/03 00:33:51;;;;;;;12.57;4.63;;;;;;;11.23;76.47;100952.13;5057201;28;20211;-63
2022/11/03 00:36:21;;;;;;;17.87;4.70;;;;;;;11.19;76.65;100952.53;5061135;28;20206;-63
2022/11/03 00:38:48;;;;;;;15.50;4.30;;;;;;;11.13;77.16;100955.75;5060098;28;20627;-64
2022/11/03 00:41:17;;;;;;;11.90;4.50;;;;;;;11.11;77.47;100945.28;5056494;28;20672;-65
2022/11/03 00:43:46;;;;;;;19.23;4.63;;;;;;;11.12;77.31;100940.81;5057298;28;20270;-65
2022/11/03 00:46:14;;;;;;;12.33;3.97;;;;;;;11.16;77.62;100943.06;5055258;28;20213;-64
2022/11/03 00:48:42;;;;;;;9.37;4.30;;;;;;;11.25;76.92;100939.56;5053136;28;20230;-65
2022/11/03 00:51:11;;;;;;;13.70;4.63;;;;;;;11.20;77.23;100935.63;5054815;28;20217;-63
2022/11/03 00:53:42;;;;;;;14.50;5.10;;;;;;;11.17;77.21;100935.94;5053524;28;20645;-64
2022/11/03 00:56:12;;;;;;;17.10;5.30;;;;;;;11.27;76.99;100928.78;5057903;28;20852;-64
2022/11/03 00:58:41;;;;;;;22.87;5.20;;;;;;;11.40;76.35;100929.34;5053788;28;20201;-64
2022/11/03 01:01:12;;;;;;;16.63;5.33;;;;;;;11.56;75.49;100926.91;5053947;28;20271;-63
2022/11/03 01:06:48;;;;;;;19.47;5.03;;;;;;;11.46;75.49;100927.91;5055315;28;20242;-65
2022/11/03 01:06:50;;;;;;;15.20;5.80;;;;;;;11.47;75.61;100924.28;5053545;28;20208;-64
2022/11/03 01:09:19;;;;;;;16.73;4.97;;;;;;;11.49;75.85;100928.47;5047767;28;20205;-63
2022/11/03 01:11:53;;;;;;;12.70;4.73;;;;;;;11.54;75.45;100931.53;5051424;28;20224;-66
2022/11/03 01:14:20;;;;;;;14.40;5.43;;;;;;;11.56;74.97;100924.28;5050847;28;20236;-65
2022/11/03 01:16:50;;;;;;;15.43;5.47;;;;;;;11.57;74.85;100928.59;5045650;28;20222;-63
2022/11/03 01:19:17;;;;;;;14.40;5.60;;;;;;;11.56;74.70;100926.91;5052301;28;20744;-64
2022/11/03 01:21:45;;;;;;;16.50;4.83;;;;;;;11.63;74.26;100922.69;5051119;28;21061;-65
2022/11/03 01:24:13;;;;;;;16.93;5.50;;;;;;;11.63;73.97;100922.69;5048956;28;20596;-66
2022/11/03 01:26:40;;;;;;;13.10;5.10;;;;;;;11.69;73.65;100913.34;5049514;28;20234;-64
2022/11/03 01:29:08;;;;;;;15.13;5.40;;;;;;;11.67;73.31;100916.13;5050459;28;20800;-66
2022/11/03 01:31:36;;;;;;;13.37;5.63;;;;;;;11.73;73.03;100912.06;5050821;28;20876;-64
2022/11/03 01:34:05;;;;;;;16.10;6.03;;;;;;;11.75;73.06;100917.25;5048006;28;20208;-64
2022/11/03 01:36:32;;;;;;;15.27;5.37;;;;;;;11.72;72.67;100909.53;5049794;28;20208;-64
2022/11/03 01:39:00;;;;;;;12.73;5.37;;;;;;;11.72;72.74;100917.50;5054943;28;20230;-64
2022/11/03 01:41:28;;;;;;;11.63;4.73;;;;;;;11.77;72.43;100910.00;5056311;28;20211;-64
2022/11/03 01:44:32;;;;;;;11.57;5.30;;;;;;;11.79;72.25;100905.34;5053308;28;20222;-65
2022/11/03 01:47:10;;;;;;;14.97;5.20;;;;;;;11.82;71.96;100902.41;5055486;28;20271;-64
2022/11/03 01:49:44;;;;;;;14.97;5.43;;;;;;;11.78;72.00;100901.03;5049340;28;20261;-65
2022/11/03 01:52:18;;;;;;;11.40;4.87;;;;;;;11.79;71.81;100887.59;5047975;28;20214;-66
2022/11/03 01:54:51;;;;;;;15.97;5.30;;;;;;;11.73;71.92;100892.63;5053299;28;20229;-64
2022/11/03 01:57:24;;;;;;;10.87;4.90;;;;;;;11.80;71.63;100883.09;5054139;28;20215;-65
2022/11/03 01:59:56;;;;;;;17.77;5.13;;;;;;;11.74;71.57;100881.84;5055431;28;20207;-65
2022/11/03 02:02:25;;;;;;;11.53;5.10;;;;;;;11.59;71.96;100878.00;5051614;28;20218;-64
2022/11/03 02:04:58;;;;;;;15.73;5.33;;;;;;;11.42;72.94;100868.97;5053351;28;20211;-62
2022/11/03 02:07:32;;;;;;;19.13;5.63;;;;;;;11.31;73.63;100866.47;5050168;28;20310;-63
2022/11/03 02:10:00;;;;;;;14.17;5.27;;;;;;;11.28;73.87;100864.94;5054329;28;20688;-63
2022/11/03 02:12:28;;;;;;;16.37;5.60;;;;;;;11.36;73.48;100853.59;5048272;28;20204;-65
2022/11/03 02:15:00;;;;;;;16.87;5.30;;;;;;;11.31;73.25;100851.38;5050413;28;20237;-64
2022/11/03 02:17:30;;;;;;;14.80;5.97;;;;;;;11.09;74.28;100845.53;5053608;28;20257;-64
2022/11/03 02:20:02;;;;;;;19.00;5.63;;;;;;;11.01;74.73;100845.41;5055129;28;20205;-65
2022/11/03 02:22:52;;;;;;;14.90;5.13;;;;;;;10.89;75.35;100856.19;5049508;28;20226;-65
2022/11/03 02:25:36;;;;;;;16.77;5.20;;;;;;;10.80;76.13;100846.44;5047210;28;20233;-66
2022/11/03 02:28:05;;;;;;;16.03;5.00;;;;;;;10.88;75.90;100833.28;5051199;28;20327;-64
2022/11/03 02:30:38;;;;;;;13.13;4.63;;;;;;;11.00;75.50;100825.16;5050114;28;20210;-64
2022/11/03 02:33:13;;;;;;;11.43;4.60;;;;;;;11.02;75.58;100833.81;5049463;28;20837;-65
2022/11/03 02:35:48;;;;;;;15.50;5.97;;;;;;;11.09;75.23;100829.59;5046313;28;20212;-64
2022/11/03 02:38:19;;;;;;;12.80;5.00;;;;;;;11.07;75.05;100832.44;5053218;28;20213;-64
2022/11/03 02:40:53;;;;;;;19.37;5.07;;;;;;;11.07;74.84;100826.28;5052818;28;20205;-65
2022/11/03 02:43:24;;;;;;;8.10;4.20;;;;;;;11.06;75.00;100820.13;5055258;28;20204;-64
2022/11/03 02:45:55;;;;;;;14.30;4.87;;;;;;;11.09;74.72;100821.66;5053365;28;20210;-64
2022/11/03 02:48:22;;;;;;;15.00;5.07;;;;;;;11.20;74.20;100813.53;5048243;28;20234;-63
2022/11/03 02:50:50;;;;;;;14.70;4.93;;;;;;;11.27;73.82;100811.97;5050240;28;20225;-63
2022/11/03 02:53:19;;;;;;;13.03;4.80;;;;;;;11.25;73.82;100806.81;5055159;28;20270;-64
2022/11/03 02:55:56;;;;;;;14.13;4.80;;;;;;;11.25;73.90;100796.22;5055517;28;20268;-64
2022/11/03 02:58:30;;;;;;;16.60;5.30;;;;;;;11.31;73.83;100786.81;5051526;28;20216;-64
2022/11/03 03:01:03;;;;;;;14.67;4.63;;;;;;;11.26;73.97;100784.56;5053684;28;20675;-64
2022/11/03 03:03:36;;;;;;;11.70;4.67;;;;;;;11.25;74.00;100788.25;5053565;28;20386;-63
2022/11/03 03:06:08;;;;;;;10.90;4.33;;;;;;;11.22;73.90;100787.69;5053720;28;20717;-63
2022/11/03 03:08:41;;;;;;;14.10;4.70;;;;;;;11.23;73.95;100786.72;5052422;28;20677;-64
2022/11/03 03:11:12;;;;;;;13.30;4.87;;;;;;;11.21;74.09;100780.69;5054025;28;20219;-65
2022/11/03 03:13:43;;;;;;;12.23;4.70;;;;;;;11.23;73.91;100776.09;5052777;28;20603;-64
2022/11/03 03:16:15;;;;;;;12.93;4.20;;;;;;;11.27;73.83;100766.84;5052105;28;20214;-64
2022/11/03 03:18:49;;;;;;;11.17;3.90;;;;;;;11.28;73.67;100771.16;5052653;28;20253;-65
2022/11/03 03:21:21;;;;;;;13.00;4.37;;;;;;;11.25;73.79;100764.34;5050487;28;20710;-64
2022/11/03 03:23:57;;;;;;;11.47;4.30;;;;;;;11.29;73.73;100762.22;5058955;28;20214;-63
2022/11/03 03:26:29;;;;;;;17.67;5.20;;;;;;;11.27;73.54;100758.88;5057673;28;20292;-63
2022/11/03 03:29:02;;;;;;;16.13;4.27;;;;;;;11.23;73.87;100752.19;5053437;28;20630;-64
2022/11/03 03:31:34;;;;;;;11.70;4.10;;;;;;;11.03;74.74;100755.88;5050344;28;20836;-64
2022/11/03 03:34:04;;;;;;;9.70;3.73;;;;;;;11.03;74.86;100751.41;5052177;28;20215;-66
2022/11/03 03:36:55;;;;;;;9.60;4.30;;;;;;;10.99;75.30;100751.88;5050983;28;20296;-64
2022/11/03 03:39:27;;;;;;;11.67;4.47;;;;;;;11.01;75.18;100748.06;5051231;28;20283;-65
2022/11/03 03:41:58;;;;;;;11.53;4.17;;;;;;;11.02;75.37;100748.91;5051803;28;20258;-63
2022/11/03 03:44:27;;;;;;;17.47;4.77;;;;;;;11.05;75.02;100743.31;5057716;28;20224;-63
2022/11/03 03:47:00;;;;;;;12.43;4.90;;;;;;;11.09;74.61;100739.38;5053216;28;20216;-63
2022/11/03 03:49:28;;;;;;;10.10;4.60;;;;;;;11.07;74.86;100738.72;5050066;28;20254;-65
2022/11/03 03:51:56;;;;;;;20.57;4.90;;;;;;;11.04;75.03;100741.63;5053422;28;20217;-64
2022/11/03 03:54:23;;;;;;;13.67;4.53;;;;;;;11.04;75.10;100739.00;5046678;28;20225;-65
2022/11/03 03:57:00;;;;;;;15.50;4.83;;;;;;;11.14;74.27;100727.38;5050774;28;20811;-65
2022/11/03 03:59:27;;;;;;;12.90;4.47;;;;;;;11.20;73.78;100732.06;5052346;28;20255;-64
2022/11/03 04:01:55;;;;;;;11.30;4.33;;;;;;;11.21;73.73;100725.78;5048361;28;20217;-65
2022/11/03 04:04:23;;;;;;;11.47;4.90;;;;;;;11.25;73.32;100731.66;5050419;28;20208;-63
2022/11/03 04:07:45;;;;;;;17.80;4.93;;;;;;;11.23;73.38;100723.84;5048446;28;20218;-64
2022/11/03 04:09:39;;;;;;;10.00;3.90;;;;;;;11.21;73.47;100724.97;5052639;28;20646;-65
2022/11/03 04:23:13;;;;;;;14.53;4.60;;;;;;;10.58;76.17;100708.78;5050256;28;20651;-63
2022/11/03 04:25:42;;;;;;;13.50;4.20;;;;;;;10.45;76.97;100703.81;5047282;28;20439;-64
2022/11/03 04:28:13;;;;;;;13.93;4.50;;;;;;;10.46;77.31;100696.69;5051885;28;20285;-64
2022/11/03 04:30:41;;;;;;;9.87;4.40;;;;;;;10.43;77.61;100695.16;5048486;28;20211;-63
2022/11/03 04:33:13;;;;;;;11.77;4.67;;;;;;;10.50;76.96;100695.41;5048465;28;20246;-64
2022/11/03 04:35:43;;;;;;;10.50;4.07;;;;;;;10.39;77.37;100692.91;5049493;28;20206;-64
2022/11/03 04:38:22;;;;;;;13.80;4.53;;;;;;;10.33;77.84;100694.31;5049239;28;20675;-63
2022/11/03 04:40:54;;;;;;;14.27;5.13;;;;;;;10.25;78.41;100686.25;5053299;28;20654;-63
2022/11/03 04:43:30;;;;;;;10.97;4.57;;;;;;;10.45;77.59;100698.50;5054159;28;20645;-64
2022/11/03 04:45:57;;;;;;;17.80;4.87;;;;;;;10.53;76.96;100693.31;5054654;28;20197;-64
2022/11/03 04:48:28;;;;;;;14.63;4.67;;;;;;;10.63;76.85;100695.97;5053208;28;20207;-63
2022/11/03 04:51:00;;;;;;;16.93;4.87;;;;;;;10.70;75.95;100691.75;5056974;28;20215;-63
2022/11/03 04:53:31;;;;;;;17.67;5.47;;;;;;;10.75;75.85;100694.78;5052238;28;20662;-64
2022/11/03 04:55:59;;;;;;;13.20;4.77;;;;;;;10.77;75.65;100694.66;5055281;28;20732;-65
2022/11/03 04:58:36;;;;;;;9.70;4.10;;;;;;;10.85;74.85;100698.25;5055274;28;20224;-64
2022/11/03 05:01:06;;;;;;;12.97;4.50;;;;;;;10.84;74.66;100685.13;5052947;28;20917;-65
2022/11/03 05:03:36;;;;;;;12.70;4.80;;;;;;;10.88;74.50;100684.72;5053603;28;20638;-64
2022/11/03 05:06:11;;;;;;;9.97;4.43;;;;;;;10.90;74.12;100681.94;5052348;28;20216;-63
2022/11/03 05:08:39;;;;;;;13.60;4.40;;;;;;;10.80;74.37;100686.41;5049324;28;20223;-63
2022/11/03 05:11:17;;;;;;;9.20;4.17;;;;;;;10.80;74.41;100676.66;5047549;28;20657;-64
2022/11/03 05:13:46;;;;;;;17.63;4.70;;;;;;;10.71;74.63;100668.72;5056252;28;21916;-66
2022/11/03 05:16:13;;;;;;;12.00;4.40;;;;;;;10.51;76.00;100668.75;5056249;28;20216;-63
2022/11/03 05:18:43;;;;;;;11.60;4.20;;;;;;;10.51;76.11;100659.97;5049621;28;20204;-64
2022/11/03 05:21:14;;;;;;;15.90;4.47;;;;;;;10.61;75.59;100655.47;5053247;28;20587;-64
2022/11/03 05:23:46;;;;;;;9.40;4.00;;;;;;;10.65;75.65;100650.72;5052899;28;20197;-65
2022/11/03 05:26:18;;;;;;;13.57;4.77;;;;;;;10.62;75.67;100657.16;5050820;28;20238;-64
2022/11/03 05:28:52;;;;;;;12.13;4.90;;;;;;;10.70;75.15;100653.78;5050275;28;20929;-64
2022/11/03 05:31:25;;;;;;;12.07;4.77;;;;;;;10.64;75.41;100651.72;5053069;28;20603;-64
2022/11/03 05:33:56;;;;;;;14.03;4.97;;;;;;;10.60;75.81;100645.84;5054992;28;20212;-66
2022/11/03 05:36:25;;;;;;;13.67;5.47;;;;;;;10.52;76.07;100637.78;5055229;28;20205;-64
2022/11/03 05:38:58;;;;;;;16.93;5.23;;;;;;;10.50;76.39;100632.63;5048873;28;21000;-65
2022/11/03 05:41:30;;;;;;;16.30;5.27;;;;;;;10.52;76.33;100621.88;5054858;28;20216;-65
2022/11/03 05:44:02;;;;;;;13.17;4.63;;;;;;;10.51;76.46;100623.69;5058268;28;20206;-66
2022/11/03 05:46:33;;;;;;;14.37;4.90;;;;;;;10.65;75.63;100613.59;5059247;28;20214;-65
2022/11/03 05:49:02;;;;;;;13.93;4.83;;;;;;;10.56;75.92;100609.97;5054856;28;20205;-65
2022/11/03 05:51:36;;;;;;;13.17;5.50;;;;;;;10.37;76.91;100602.09;5055361;28;20600;-63
2022/11/03 05:54:09;;;;;;;15.10;5.27;;;;;;;10.34;77.23;100607.69;5053095;28;20804;-65
2022/11/03 05:56:42;;;;;;;11.80;4.80;;;;;;;10.38;77.12;100601.94;5053586;28;20307;-62
2022/11/03 05:59:13;;;;;;;18.30;5.37;;;;;;;10.26;77.81;100597.81;5058616;28;20220;-64
2022/11/03 06:01:41;;;;;;;14.80;4.93;;;;;;;10.31;77.44;100589.41;5054839;28;20629;-64
2022/11/03 06:04:18;;;;;;;14.80;4.87;;;;;;;10.34;77.11;100589.97;5052681;28;20216;-64
2022/11/03 06:06:52;;;;;;;11.97;4.67;;;;;;;10.34;77.61;100586.47;5046296;28;20273;-64
2022/11/03 06:09:22;;;;;;;18.00;6.07;;;;;;;10.43;77.19;100594.41;5051162;28;20335;-63
2022/11/03 06:11:53;;;;;;;13.87;4.63;;;;;;;10.46;77.16;100588.00;5048976;28;20215;-63
2022/11/03 06:14:25;;;;;;;13.23;4.70;;;;;;;10.57;76.28;100585.97;5046988;28;20277;-63
2022/11/03 06:16:56;;;;;;;13.50;4.87;;;;;;;10.61;76.22;100588.34;5052200;28;20217;-64
2022/11/03 06:19:28;;;;;;;10.00;4.87;;;;;;;10.55;76.46;100595.09;5051864;28;20224;-64
2022/11/03 06:22:02;;;;;;;11.60;4.43;;;;;;;10.63;76.25;100594.34;5050221;28;20254;-64
2022/11/03 06:24:33;;;;;;;12.30;4.73;;;;;;;10.63;76.14;100595.19;5049617;28;20250;-66
2022/11/03 06:27:01;;;;;;;13.30;4.83;;;;;;;10.61;76.22;100597.16;5050580;28;20237;-64
2022/11/03 06:29:33;;;;;;;13.40;5.17;;;;;;;10.58;76.35;100597.41;5049282;28;20209;-64
2022/11/03 06:32:01;;;;;;;13.10;4.70;;;;;;;10.52;76.30;100587.41;5052192;28;20254;-64
2022/11/03 06:34:37;;;;;;;18.10;5.50;;;;;;;10.34;77.36;100583.84;5053412;28;20212;-63
2022/11/03 06:37:18;;;;;;;16.80;5.50;;;;;;;10.33;77.89;100579.50;5048900;28;20208;-65
2022/11/03 06:39:47;;;;;;;14.47;5.03;;;;;;;10.46;77.19;100575.56;5053154;28;20204;-66
2022/11/03 06:42:16;;;;;;;14.10;5.43;;;;;;;10.63;76.51;100579.28;5049936;28;20291;-62
2022/11/03 06:44:47;;;;;;;12.70;4.77;;;;;;;10.77;75.70;100570.00;5051708;28;20254;-64
2022/11/03 06:47:21;;;;;;;18.43;6.60;;;;;;;10.85;75.26;100568.28;5049181;28;20216;-63
2022/11/03 06:49:49;;;;;;;13.80;5.53;;;;;;;10.89;75.11;100577.63;5045738;28;20227;-66
2022/11/03 06:52:28;;;;;;;24.20;6.60;;;;;;;10.97;75.22;100581.34;5048720;28;20227;-64
2022/11/03 06:55:25;;;;;;;17.27;5.63;;;;;;;11.04;74.68;100570.00;5047890;28;20200;-65
2022/11/03 06:57:56;;;;;;;19.33;7.60;;;;;;;10.91;74.91;100567.66;5047014;28;20213;-64
2022/11/03 07:00:27;;;;;;;21.90;7.73;;;;;;;10.79;75.93;100562.72;5051486;28;20231;-65
2022/11/03 07:03:10;;;;;;;21.87;6.77;;;;;;;10.64;76.82;100553.59;5049464;28;20795;-65
2022/11/03 07:05:39;;;;;;;18.07;6.33;;;;;;;10.73;76.66;100537.59;5046835;28;20216;-64
2022/11/03 07:08:22;;;;;;;17.80;6.93;;;;;;;10.90;75.97;100536.84;5047828;28;20214;-63
2022/11/03 07:10:51;;;;;;;18.73;5.73;;;;;;;11.02;75.16;100526.84;5051086;28;20215;-65
2022/11/03 07:13:22;;;;;;;21.40;6.90;;;;;;;11.12;74.61;100526.78;5053226;28;20256;-65
2022/11/03 07:15:51;;;;;;;14.57;6.57;;;;;;;11.19;74.30;100530.50;5056758;28;20212;-64
2022/11/03 07:18:22;;;;;;;14.03;6.17;;;;;;;11.26;74.19;100529.75;5054286;28;20213;-62
2022/11/03 07:20:51;;;;;;;17.80;6.43;;;;;;;11.34;74.18;100528.16;5059435;28;20231;-60
2022/11/03 07:23:24;;;;;;;20.10;7.17;;;;;;;11.40;73.77;100520.44;5058888;28;20246;-61
2022/11/03 07:25:54;;;;;;;17.70;7.53;;;;;;;11.43;73.51;100533.41;5051086;28;20234;-63
2022/11/03 07:28:24;;;;;;;22.23;7.63;;;;;;;11.52;73.26;100524.50;5051553;28;20267;-61
2022/11/03 07:30:53;;;;;;;23.13;8.40;;;;;;;11.43;73.63;100525.44;5050636;28;20278;-62
2022/11/03 07:33:25;;;;;;;23.80;7.73;;;;;;;11.29;74.45;100523.31;5048621;28;20213;-61
2022/11/03 07:35:56;;;;;;;19.87;6.87;;;;;;;11.21;74.57;100526.72;5052423;28;20246;-61
2022/11/03 07:38:46;;;;;;;21.30;7.03;;;;;;;11.21;74.99;100520.56;5048365;28;20229;-61
2022/11/03 07:41:18;;;;;;;16.37;6.27;;;;;;;11.35;74.46;100520.03;5053112;28;20272;-61
2022/11/03 07:43:53;;;;;;;13.83;6.60;;;;;;;11.29;74.51;100512.69;5052066;28;20692;-62
2022/11/03 07:46:23;;;;;;;13.97;6.03;;;;;;;11.37;74.20;100504.78;5059334;28;20206;-60
2022/11/03 07:48:54;;;;;;;13.87;5.30;;;;;;;11.40;74.14;100498.34;5054580;28;20200;-62
2022/11/03 07:51:24;;;;;;;13.10;5.90;;;;;;;11.42;73.93;100499.03;5058979;28;20283;-62
2022/11/03 07:53:54;;;;;;;20.47;6.30;;;;;;;11.41;74.36;100495.56;5052988;28;20209;-61
2022/11/03 07:56:25;;;;;;;17.70;5.40;;;;;;;11.59;73.43;100485.75;5055577;28;20218;-62
2022/11/03 07:58:55;;;;;;;14.03;5.50;;;;;;;11.67;73.03;100483.16;5054644;28;20202;-62
2022/11/03 08:01:27;;;;;;;13.30;5.07;;;;;;;11.65;73.25;100471.00;5057841;28;20575;-62
2022/11/03 08:03:59;;;;;;;15.10;5.90;;;;;;;11.72;72.97;100476.53;5059799;28;20206;-62
2022/11/03 08:06:27;;;;;;;24.17;6.60;;;;;;;11.83;72.64;100468.34;5051306;28;20206;-63
2022/11/03 08:08:55;;;;;;;17.90;5.37;;;;;;;11.88;72.18;100466.03;5053640;28;20221;-63
2022/11/03 08:11:23;;;;;;;85.13;16.40;;;;;;;11.93;72.15;100458.44;5053137;28;20297;-62
2022/11/03 08:13:56;;;;;;;44.17;9.80;;;;;;;12.00;71.88;100454.16;5056319;28;20885;-61
2022/11/03 08:16:25;;;;;;;13.13;5.53;;;;;;;12.01;71.97;100446.03;5059083;28;20207;-62
2022/11/03 08:18:52;;;;;;;18.17;6.30;;;;;;;12.05;71.50;100443.88;5055568;28;20220;-62
2022/11/03 08:21:20;;;;;;;12.50;5.80;;;;;;;11.89;71.89;100443.78;5049359;28;20214;-62
2022/11/03 08:23:48;;;;;;;12.73;5.60;;;;;;;11.98;71.91;100441.03;5054435;28;20208;-62
2022/11/03 08:26:15;;;;;;;19.33;5.70;;;;;;;12.08;71.86;100440.91;5049970;28;20247;-63
2022/11/03 08:28:43;;;;;;;14.00;5.27;;;;;;;12.19;71.28;100432.66;5053078;28;20249;-63
2022/11/03 08:31:11;;;;;;;12.20;5.57;;;;;;;12.33;70.55;100429.38;5055606;28;20723;-63
2022/11/03 08:33:41;;;;;;;12.90;5.37;;;;;;;12.49;70.14;100430.47;5053794;28;20304;-62
2022/11/03 08:36:09;;;;;;;12.77;5.73;;;;;;;12.53;69.72;100424.66;5054682;28;20203;-62
2022/11/03 08:38:37;;;;;;;13.40;5.37;;;;;;;12.57;69.97;100423.34;5055170;28;20277;-61
2022/11/03 08:41:05;;;;;;;19.60;5.77;;;;;;;12.58;70.28;100430.28;5055972;28;20658;-61
2022/11/03 08:43:33;;;;;;;13.20;5.50;;;;;;;12.73;70.10;100430.53;5055109;28;20586;-62
2022/11/03 08:46:00;;;;;;;15.03;6.97;;;;;;;13.00;69.48;100442.72;5055914;28;20605;-62
2022/11/03 08:48:40;;;;;;;19.57;6.13;;;;;;;13.31;68.08;100429.63;5052540;28;20218;-62
2022/11/03 08:51:09;;;;;;;20.13;5.73;;;;;;;13.48;67.94;100423.28;5050609;28;20229;-62
2022/11/03 08:53:37;;;;;;;21.70;5.80;;;;;;;13.90;66.49;100418.53;5055548;28;20215;-61
2022/11/03 08:56:06;;;;;;;13.13;6.50;;;;;;;14.35;65.06;100408.22;5051537;28;20425;-62
2022/11/03 08:58:39;;;;;;;12.23;5.33;;;;;;;15.15;61.83;100411.41;5050465;28;20803;-64
2022/11/03 09:01:07;;;;;;;12.03;5.63;;;;;;;15.92;59.12;100420.09;5055169;28;20209;-62
2022/11/03 09:03:34;;;;;;;12.20;5.33;;;;;;;16.91;55.06;100417.63;5054491;28;20207;-62
2022/11/03 09:06:04;;;;;;;15.63;5.27;;;;;;;17.00;54.08;100409.47;5051863;28;20234;-62
2022/11/03 09:08:31;;;;;;;12.70;5.33;;;;;;;16.65;55.18;100401.28;5054870;28;20207;-62
2022/11/03 09:11:19;;;;;;;13.13;5.70;;;;;;;16.28;56.42;100396.06;5053161;28;20846;-62
2022/11/03 09:13:47;;;;;;;14.37;5.27;;;;;;;15.97;57.21;100397.13;5052397;28;20678;-62
2022/11/03 09:16:14;;;;;;;13.33;5.13;;;;;;;15.56;58.06;100393.22;5053750;28;20650;-61
2022/11/03 09:18:42;;;;;;;12.90;5.30;;;;;;;15.29;59.87;100391.94;5055361;28;20208;-61
2022/11/03 09:21:12;;;;;;;15.00;5.53;;;;;;;15.06;61.06;100382.09;5051565;28;20216;-61
2022/11/03 09:23:42;;;;;;;13.13;5.23;;;;;;;14.64;62.40;100387.91;5058564;28;20293;-61
2022/11/03 09:26:09;;;;;;;11.93;5.50;;;;;;;14.19;63.92;100388.63;5055065;28;20255;-61
2022/11/03 09:28:37;;;;;;;12.40;4.50;;;;;;;13.83;65.56;100376.75;5057491;28;20609;-62
2022/11/03 09:31:05;;;;;;;12.03;5.10;;;;;;;13.68;66.29;100368.63;5053504;28;20212;-62
2022/11/03 09:33:32;;;;;;;15.30;6.30;;;;;;;13.48;67.46;100367.34;5049952;28;20229;-62
2022/11/03 09:36:00;;;;;;;16.83;6.50;;;;;;;13.29;68.56;100357.03;5052380;28;20863;-62
2022/11/03 09:38:29;;;;;;;13.60;6.43;;;;;;;13.23;69.02;100352.41;5052312;28;20601;-61
2022/11/03 09:40:57;;;;;;;15.07;6.13;;;;;;;13.15;69.85;100340.75;5059284;28;20755;-62
2022/11/03 09:43:25;;;;;;;14.67;5.97;;;;;;;13.16;70.39;100342.44;5050342;28;20259;-61
2022/11/03 09:45:53;;;;;;;13.53;6.10;;;;;;;13.31;70.11;100325.75;5054985;28;20212;-62
2022/11/03 09:48:21;;;;;;;13.07;5.67;;;;;;;13.36;69.78;100328.75;5052495;28;20214;-61
2022/11/03 09:50:52;;;;;;;11.57;5.37;;;;;;;13.35;70.19;100335.09;5057954;28;20249;-62
2022/11/03 09:53:21;;;;;;;14.43;6.07;;;;;;;13.40;70.07;100322.91;5053897;28;20222;-61
2022/11/03 09:55:50;;;;;;;15.40;6.80;;;;;;;13.58;69.76;100322.69;5053897;28;20217;-62
2022/11/03 09:58:18;;;;;;;14.90;6.00;;;;;;;13.84;69.21;100304.63;5056074;28;20293;-62
2022/11/03 10:00:46;;;;;;;18.77;6.60;;;;;;;14.16;68.11;100295.63;5056873;28;20218;-60
2022/11/03 10:03:16;;;;;;;15.80;5.77;;;;;;;14.42;67.21;100276.69;5062297;28;20238;-61
2022/11/03 10:05:45;;;;;;;14.70;6.07;;;;;;;14.57;66.55;100293.56;5059010;28;20215;-61
2022/11/03 10:08:21;;;;;;;13.70;6.23;;;;;;;14.69;65.64;100293.97;5051562;28;20211;-62
2022/11/03 10:10:51;;;;;;;11.67;5.70;;;;;;;14.73;65.80;100289.09;5052478;28;20703;-62
2022/11/03 10:13:24;;;;;;;21.73;6.37;;;;;;;15.03;65.04;100281.00;5057127;28;20231;-61
2022/11/03 10:15:52;;;;;;;18.00;5.20;;;;;;;15.31;63.46;100283.03;5057782;28;20552;-61
2022/11/03 10:18:20;;;;;;;13.57;5.33;;;;;;;15.70;62.33;100272.13;5063947;28;20337;-61
2022/11/03 10:20:47;;;;;;;10.83;4.53;;;;;;;16.10;60.45;100263.53;5055362;28;20267;-61
2022/11/03 10:23:15;;;;;;;15.40;5.03;;;;;;;16.12;59.85;100261.53;5055771;28;20280;-61
2022/11/03 10:25:44;;;;;;;10.13;4.37;;;;;;;15.88;60.25;100251.16;5057059;28;20270;-61
2022/11/03 10:28:16;;;;;;;8.53;4.33;;;;;;;15.63;60.79;100249.81;5053635;28;20208;-61
2022/11/03 10:30:48;;;;;;;15.00;5.33;;;;;;;15.16;62.27;100253.66;5055515;28;20230;-60
2022/11/03 10:33:37;;;;;;;19.43;4.83;;;;;;;14.80;64.24;100263.34;5050986;28;20282;-61
2022/11/03 10:36:22;;;;;;;9.30;4.50;;;;;;;14.60;65.38;100258.50;5054243;28;20218;-63
2022/11/03 10:38:50;;;;;;;10.27;4.70;;;;;;;14.49;66.22;100250.09;5053611;28;20250;-62
2022/11/03 10:41:20;;;;;;;12.53;4.67;;;;;;;14.35;66.67;100249.00;5052998;28;20207;-62
2022/11/03 10:44:06;;;;;;;10.10;4.93;;;;;;;14.21;67.47;100241.78;5050100;28;20258;-62
2022/11/03 10:46:34;;;;;;;12.30;5.03;;;;;;;14.13;68.25;100228.50;5046817;28;20214;-62
2022/11/03 10:49:18;;;;;;;9.30;4.70;;;;;;;14.12;68.55;100214.31;5048604;28;20921;-62
2022/11/03 10:51:49;;;;;;;14.13;5.10;;;;;;;14.13;68.68;100199.16;5052967;28;20232;-62
2022/11/03 10:54:20;;;;;;;12.93;5.07;;;;;;;14.02;69.04;100195.06;5053971;28;20249;-63
2022/11/03 10:56:49;;;;;;;15.03;4.47;;;;;;;13.97;69.19;100185.94;5054168;28;20261;-62
2022/11/03 10:59:20;;;;;;;19.40;5.50;;;;;;;13.88;69.98;100177.19;5054250;28;20221;-63
2022/11/03 11:01:48;;;;;;;12.50;4.20;;;;;;;14.00;69.64;100175.75;5050579;28;20211;-62
2022/11/03 11:04:17;;;;;;;12.40;4.33;;;;;;;14.00;69.70;100173.06;5050575;28;20301;-62
2022/11/03 11:06:46;;;;;;;14.77;5.63;;;;;;;14.03;69.83;100185.22;5051887;28;20222;-62
2022/11/03 11:09:17;;;;;;;10.97;4.97;;;;;;;14.11;69.52;100166.50;5054095;28;20204;-62
2022/11/03 11:11:59;;;;;;;15.37;5.17;;;;;;;14.12;69.55;100169.00;5052521;28;20269;-62
2022/11/03 11:14:50;;;;;;;18.80;5.97;;;;;;;14.14;69.71;100164.31;5054914;28;20734;-62
2022/11/03 11:17:41;;;;;;;15.73;4.77;;;;;;;14.24;68.82;100161.41;5053492;28;20632;-62
2022/11/03 11:20:34;;;;;;;14.23;4.73;;;;;;;14.30;68.65;100144.69;5052324;28;20333;-61
2022/11/03 11:23:35;;;;;;;16.30;4.00;;;;;;;14.33;68.66;100160.34;5039063;28;20226;-61
2022/11/03 11:26:13;;;;;;;15.53;4.50;;;;;;;14.39;68.18;100142.81;5053222;28;20237;-62
2022/11/03 11:28:42;;;;;;;17.37;4.53;;;;;;;14.40;67.98;100141.81;5054328;28;20225;-62
2022/11/03 11:31:30;;;;;;;12.13;4.17;;;;;;;14.37;67.93;100140.28;5056869;28;20700;-64
2022/11/03 11:34:35;;;;;;;14.03;4.57;;;;;;;14.30;67.45;100145.53;5057074;28;20207;-62
2022/11/03 11:37:32;;;;;;;17.40;4.60;;;;;;;14.17;68.48;100141.78;5049509;28;20206;-63
2022/11/03 11:40:00;;;;;;;12.10;4.03;;;;;;;14.20;68.42;100141.44;5052615;28;20628;-62
2022/11/03 11:42:27;;;;;;;10.40;3.63;;;;;;;14.24;68.53;100135.59;5052522;28;20218;-63
2022/11/03 11:45:01;;;;;;;15.93;4.30;;;;;;;14.16;68.85;100132.97;5055673;28;20270;-62
2022/11/03 11:47:44;;;;;;;12.30;4.40;;;;;;;14.14;68.99;100136.84;5056361;28;20221;-63
2022/11/03 11:50:33;;;;;;;9.73;3.90;;;;;;;14.06;69.69;100128.91;5045370;28;20209;-62